Date,TemperatureHighF,TemperatureAvgF,TemperatureLowF,DewpointHighF,DewpointAvgF,DewpointLowF,HumidityHigh,HumidityAvg,HumidityLow,PressureMaxIn,PressureMinIn,WindSpeedMaxMPH,WindSpeedAvgMPH,GustSpeedMaxMPH,PrecipitationSumIn
2013-6-1,86.0,75.4,67.3,67.6,55.8,46.8,87,53,28,26.93,26.67,13,3,13,0.12
2013-6-2,81.9,73.9,66.6,72.1,58.5,47.2,91,63,30,26.84,26.55,8,1,8,0.08
2013-6-3,85.5,73.7,63.5,63.5,49.3,38.2,86,48,20,26.78,26.52,10,1,10,0.00
2013-6-4,87.8,72.1,59.0,58.4,45.6,36.8,77,43,18,26.87,26.61,0,0,0,0.00
2013-6-5,85.3,71.2,64.8,63.5,56.6,48.8,89,63,29,26.84,26.61,13,1,13,0.35
2013-6-6,82.4,74.4,66.4,67.1,58.0,48.4,91,61,32,26.72,26.31,8,2,8,0.00
2013-6-7,88.7,72.8,66.6,68.3,58.9,39.9,90,66,19,26.64,26.40,9,1,9,0.16
2013-6-8,81.0,71.8,65.8,69.1,58.4,46.3,93,67,30,26.81,26.49,6,1,6,0.00
2013-6-9,84.9,71.2,65.7,69.1,62.6,50.0,93,76,31,26.90,26.58,10,2,10,0.63
2013-6-10,81.0,70.9,67.3,68.2,63.4,49.7,93,80,35,26.75,26.46,10,3,10,0.12
2013-6-11,90.3,83.7,72.5,60.7,53.2,44.8,66,37,23,26.72,26.46,8,1,8,0.00
2013-6-12,92.7,80.1,70.7,72.8,60.2,51.2,83,54,27,26.70,22.50,6,0,6,0.12
2013-6-13,91.6,78.9,69.6,66.5,58.0,51.3,77,52,27,26.55,26.25,11,2,11,0.12
2013-6-14,86.0,74.1,62.2,57.9,42.8,28.6,70,37,14,26.52,20.64,10,2,13,0.12
2013-6-15,87.1,75.2,61.0,58.7,44.3,34.6,74,37,18,26.46,17.72,10,2,10,0.12
2013-6-16,89.1,76.8,64.4,65.3,52.5,40.6,89,49,19,17.72,17.72,13,2,13,0.35
2013-6-17,81.0,72.1,67.6,68.9,64.1,59.0,92,77,51,17.72,17.72,6,1,6,0.08
2013-6-18,79.5,72.0,66.0,72.1,64.1,58.6,93,77,53,17.72,17.72,13,2,13,0.31
2013-6-19,85.1,72.7,62.4,66.7,53.5,39.6,90,57,21,17.72,17.72,7,1,7,0.12
2013-6-20,88.0,75.7,66.4,65.8,52.7,42.5,81,49,21,17.72,17.72,8,1,8,0.00
2013-6-21,86.7,75.6,67.5,64.2,52.0,40.4,77,48,22,17.72,17.72,8,1,8,0.00
2013-6-22,89.1,75.6,65.5,64.1,50.2,37.7,80,47,18,17.72,17.72,6,1,6,0.00
2013-6-23,87.6,76.4,66.2,61.4,53.0,45.5,72,47,24,17.72,17.72,9,1,9,0.00
2013-6-24,89.4,75.5,67.6,66.7,57.3,45.2,83,57,22,17.72,17.72,8,1,8,0.00
2013-6-25,88.3,78.1,69.3,66.0,58.4,50.2,79,54,29,17.72,17.72,8,2,8,0.00
2013-6-26,91.8,79.1,70.2,68.3,59.9,44.9,83,56,20,17.72,17.72,10,2,10,0.00
2013-6-27,88.9,78.3,73.4,64.3,58.7,52.1,72,53,30,17.72,17.72,8,2,8,0.00
2013-6-28,93.7,77.9,66.9,70.2,57.7,40.5,86,56,17,17.72,17.72,15,1,15,0.16
2013-6-29,88.5,73.0,66.6,64.8,51.2,28.1,88,56,13,17.72,17.72,8,1,8,0.04
2013-6-30,90.9,77.1,64.4,59.0,44.7,24.5,71,37,10,17.72,0.00,8,1,8,0.00